Altenburg-Nobitz Airport EDAC

Flugplatz Daten

Name: Altenburg-Nobitz Airport

Ident: EDAC

Lat: 50,98194504

Long: 12,50638866

Platzhöhe: 640 ft

IataCode: AOC

City: Altenburg

Homepage: http://www.leipzig-altenburg-airport.de/

Metar

2021/10/16 16:20
EDAC 161620Z 00000KT CAVOK 10/07 Q1021

Taf

Gewünschte Webcam nicht vorhanden? Dann fügen Sie eine hinzu. Sie wird dann so schnell wie möglich freigeschaltet
Url: Title: